Time;durP1;ratioP1;P1;durP2;ratioP2;P2;SDS_P1;SDS_P2;PMS_P1;PMS_P2;Temp;Humidity;BMP_temperature;BMP_pressure;BME280_temperature;BME280_humidity;BME280_pressure;Samples;Min_cycle;Max_cycle;Signal;HPM_P1;HPM_P2
2021/06/09 00:01:05;;;;;;;2.88;2.13;;;20.40;64.80;;;;;;6258160;23;20028;-70
2021/06/09 00:03:31;;;;;;;2.35;1.98;;;20.40;64.90;;;;;;6258229;23;20420;-70
2021/06/09 00:05:57;;;;;;;3.97;2.28;;;20.40;64.90;;;;;;6259029;23;20087;-69
2021/06/09 00:08:23;;;;;;;2.35;1.90;;;20.40;64.90;;;;;;6258344;23;20334;-70
2021/06/09 00:10:54;;;;;;;2.83;2.28;;;20.30;65.00;;;;;;6258428;23;20054;-70
2021/06/09 00:13:21;;;;;;;2.80;2.50;;;20.40;65.00;;;;;;6257852;23;20094;-70
2021/06/09 00:15:47;;;;;;;3.20;2.63;;;20.30;65.00;;;;;;6248118;23;20016;-70
2021/06/09 00:18:13;;;;;;;3.17;2.33;;;20.30;65.00;;;;;;6248159;23;20024;-70
2021/06/09 00:31:41;;;;;;;3.60;2.60;;;20.30;65.00;;;;;;6247919;23;20051;-69
2021/06/09 00:34:08;;;;;;;2.85;2.28;;;20.30;65.20;;;;;;6258198;23;20039;-70
2021/06/09 00:36:34;;;;;;;4.72;2.42;;;20.20;65.20;;;;;;6258493;23;20016;-70
2021/06/09 00:39:00;;;;;;;2.97;2.25;;;20.30;65.30;;;;;;6258261;23;20044;-70
2021/06/09 00:41:25;;;;;;;2.88;2.50;;;20.30;65.40;;;;;;6257593;23;20321;-69
2021/06/09 00:43:55;;;;;;;2.63;2.40;;;20.30;65.30;;;;;;6258730;23;20020;-69
2021/06/09 00:46:21;;;;;;;2.92;2.53;;;20.20;65.30;;;;;;6258677;23;20092;-70
2021/06/09 00:48:47;;;;;;;2.83;2.53;;;20.20;65.30;;;;;;6258977;23;20018;-70
2021/06/09 00:51:18;;;;;;;2.83;2.45;;;20.20;65.20;;;;;;6247910;23;20129;-70
2021/06/09 00:53:52;;;;;;;3.92;2.90;;;20.20;65.20;;;;;;6247887;23;20016;-70
2021/06/09 00:56:20;;;;;;;3.13;2.30;;;20.20;65.20;;;;;;6257831;23;20023;-69
2021/06/09 00:58:47;;;;;;;3.10;2.80;;;20.20;65.20;;;;;;6258186;23;20020;-69
2021/06/09 01:01:17;;;;;;;3.20;2.60;;;20.20;65.20;;;;;;6257772;23;20095;-70
2021/06/09 01:03:43;;;;;;;3.22;2.67;;;20.20;65.20;;;;;;6258098;23;20008;-70
2021/06/09 01:06:09;;;;;;;3.25;2.90;;;20.20;65.20;;;;;;6248115;23;20095;-70
2021/06/09 01:08:55;;;;;;;2.95;2.58;;;20.20;65.20;;;;;;6225802;23;20020;-70
2021/06/09 01:11:27;;;;;;;2.85;2.55;;;20.20;65.20;;;;;;6248132;23;20078;-70
2021/06/09 01:14:13;;;;;;;3.95;3.05;;;20.20;65.20;;;;;;6225842;23;20054;-69
2021/06/09 01:16:40;;;;;;;4.22;3.03;;;20.10;65.20;;;;;;6258568;23;20027;-69
2021/06/09 01:19:06;;;;;;;3.75;2.67;;;20.20;65.20;;;;;;6250234;23;20067;-70
2021/06/09 01:21:33;;;;;;;3.30;2.75;;;20.20;65.20;;;;;;6258407;23;20020;-69
2021/06/09 01:24:01;;;;;;;3.85;2.47;;;20.20;65.20;;;;;;6259525;23;20050;-70
2021/06/09 01:26:30;;;;;;;2.75;2.55;;;20.10;65.20;;;;;;6250062;23;20024;-69
2021/06/09 01:28:58;;;;;;;3.10;2.70;;;20.10;65.30;;;;;;6260333;23;20016;-69
2021/06/09 01:31:26;;;;;;;2.28;2.08;;;20.10;65.30;;;;;;6249748;23;20020;-70
2021/06/09 01:34:04;;;;;;;4.35;3.42;;;20.10;65.40;;;;;;6260399;23;20012;-69
2021/06/09 01:36:39;;;;;;;2.78;2.58;;;20.10;65.30;;;;;;6250010;23;20022;-69
2021/06/09 01:39:14;;;;;;;3.22;2.65;;;20.10;65.30;;;;;;6260022;23;20027;-70
2021/06/09 01:41:57;;;;;;;2.95;2.55;;;20.10;65.40;;;;;;6259333;23;20020;-69
2021/06/09 01:44:40;;;;;;;3.95;3.13;;;20.10;65.30;;;;;;6259400;23;20421;-69
2021/06/09 01:47:07;;;;;;;5.10;2.90;;;20.10;65.40;;;;;;6249947;23;20020;-70
2021/06/09 01:49:33;;;;;;;3.17;2.65;;;20.10;65.40;;;;;;6259575;23;20421;-70
2021/06/09 01:51:59;;;;;;;4.05;3.50;;;20.00;65.40;;;;;;6259333;23;20480;-70
2021/06/09 01:54:26;;;;;;;3.88;3.30;;;20.00;65.30;;;;;;6260339;23;20043;-70
2021/06/09 01:56:52;;;;;;;3.38;3.08;;;20.00;65.40;;;;;;6260210;23;20023;-70
2021/06/09 01:59:20;;;;;;;3.63;3.08;;;20.00;65.30;;;;;;6223349;23;20020;-70
2021/06/09 02:01:47;;;;;;;3.65;3.25;;;20.00;65.40;;;;;;6259888;23;20016;-70
2021/06/09 02:04:14;;;;;;;3.22;2.83;;;20.00;65.40;;;;;;6249575;23;20066;-70
2021/06/09 02:06:51;;;;;;;4.32;3.40;;;20.00;66.00;;;;;;6248730;23;20098;-70
2021/06/09 02:09:39;;;;;;;3.17;2.83;;;20.00;65.40;;;;;;6227644;23;20016;-70
2021/06/09 02:12:07;;;;;;;3.63;3.13;;;20.00;65.40;;;;;;6249261;23;20044;-70
2021/06/09 02:14:33;;;;;;;3.92;3.22;;;20.00;65.40;;;;;;6249503;23;20017;-69
2021/06/09 02:17:04;;;;;;;3.70;3.28;;;20.00;65.40;;;;;;6259132;23;20317;-69
2021/06/09 02:19:31;;;;;;;3.97;3.00;;;20.00;65.30;;;;;;6249722;23;20078;-70
2021/06/09 02:21:57;;;;;;;3.85;3.05;;;20.00;65.40;;;;;;6260635;23;20023;-69
2021/06/09 02:24:26;;;;;;;3.85;3.45;;;20.00;65.40;;;;;;6249224;23;20020;-69
2021/06/09 02:26:52;;;;;;;3.92;3.53;;;20.00;65.40;;;;;;6259287;23;20437;-69
2021/06/09 02:29:19;;;;;;;3.97;3.58;;;20.00;65.40;;;;;;6259090;23;20020;-70
2021/06/09 02:31:50;;;;;;;3.70;3.40;;;20.00;65.40;;;;;;6259309;23;20023;-70
2021/06/09 02:34:25;;;;;;;4.22;3.60;;;20.00;65.40;;;;;;6258745;23;20012;-69
2021/06/09 02:36:53;;;;;;;5.20;3.53;;;19.90;65.40;;;;;;6259400;23;20012;-70
2021/06/09 02:39:20;;;;;;;4.72;4.03;;;19.90;65.40;;;;;;6258774;23;20012;-70
2021/06/09 02:41:47;;;;;;;3.58;3.22;;;19.90;65.50;;;;;;6259334;23;20027;-70
2021/06/09 02:44:13;;;;;;;4.18;3.63;;;19.90;65.50;;;;;;6249258;23;20061;-70
2021/06/09 02:47:02;;;;;;;4.18;3.42;;;19.90;66.20;;;;;;6250331;23;20016;-70
2021/06/09 02:49:50;;;;;;;4.15;3.63;;;19.90;65.50;;;;;;6226780;23;20016;-70
2021/06/09 02:52:22;;;;;;;4.32;3.55;;;19.90;65.60;;;;;;6260210;23;20020;-70
2021/06/09 02:55:04;;;;;;;4.35;3.92;;;19.90;65.50;;;;;;6258930;23;20023;-69
2021/06/09 02:57:38;;;;;;;4.30;3.65;;;19.90;65.60;;;;;;6258964;23;20309;-70
2021/06/09 03:00:18;;;;;;;3.85;3.05;;;19.90;65.70;;;;;;6258907;23;20012;-70
2021/06/09 03:02:50;;;;;;;3.67;3.38;;;19.80;65.60;;;;;;6259309;23;20012;-70
2021/06/09 03:05:38;;;;;;;4.10;3.80;;;19.90;65.70;;;;;;6233573;23;20027;-70
2021/06/09 03:08:15;;;;;;;4.28;3.70;;;19.90;65.60;;;;;;6258562;23;20023;-70
2021/06/09 03:10:41;;;;;;;4.63;4.15;;;19.80;65.60;;;;;;6258858;23;20027;-70
2021/06/09 03:13:24;;;;;;;4.22;3.40;;;19.90;65.60;;;;;;6249669;23;20317;-70
2021/06/09 03:15:58;;;;;;;4.22;3.80;;;19.80;65.60;;;;;;6258910;23;20500;-70
2021/06/09 03:18:37;;;;;;;4.03;3.63;;;19.80;65.60;;;;;;6249002;23;20094;-70
2021/06/09 03:21:11;;;;;;;4.20;3.80;;;19.80;65.60;;;;;;6259535;23;20016;-69
2021/06/09 03:24:07;;;;;;;4.50;4.05;;;19.80;65.70;;;;;;6258873;23;20019;-69
2021/06/09 03:26:57;;;;;;;5.20;4.38;;;19.80;65.60;;;;;;6227456;23;20356;-70
2021/06/09 03:29:47;;;;;;;4.82;4.32;;;19.80;65.70;;;;;;6258663;23;20359;-69
2021/06/09 03:32:23;;;;;;;5.20;4.68;;;19.80;65.60;;;;;;6248505;23;20115;-69
2021/06/09 03:35:02;;;;;;;5.22;4.72;;;19.80;65.70;;;;;;6248427;23;20031;-70
2021/06/09 03:37:33;;;;;;;5.22;4.50;;;19.80;65.70;;;;;;6258685;23;20016;-70
2021/06/09 03:40:02;;;;;;;5.50;4.80;;;19.80;65.70;;;;;;6248437;23;20027;-70
2021/06/09 03:42:31;;;;;;;5.10;4.45;;;19.70;65.60;;;;;;6258212;23;20012;-69
2021/06/09 03:44:59;;;;;;;6.32;5.25;;;19.70;65.70;;;;;;6248121;23;20102;-69
2021/06/09 03:47:26;;;;;;;5.72;4.93;;;19.70;65.70;;;;;;6249099;23;20030;-69
2021/06/09 03:49:55;;;;;;;5.20;4.70;;;19.70;65.80;;;;;;6248417;23;20016;-70
2021/06/09 03:52:22;;;;;;;5.70;5.10;;;19.70;65.80;;;;;;6248447;23;20044;-69
2021/06/09 03:54:54;;;;;;;4.80;4.22;;;19.70;65.90;;;;;;6247950;23;20321;-69
2021/06/09 03:57:40;;;;;;;4.90;4.40;;;19.70;65.90;;;;;;6226496;23;20441;-70
2021/06/09 04:00:07;;;;;;;7.20;4.50;;;19.70;65.90;;;;;;6247864;23;20055;-70
2021/06/09 04:02:36;;;;;;;5.70;5.07;;;19.70;66.00;;;;;;6231630;23;20016;-70
2021/06/09 04:05:03;;;;;;;6.10;5.47;;;19.70;66.00;;;;;;6248215;23;20020;-69
2021/06/09 04:07:30;;;;;;;5.05;4.35;;;19.70;66.00;;;;;;6248143;23;20016;-70
2021/06/09 04:10:00;;;;;;;6.30;5.03;;;19.60;66.00;;;;;;6248100;23;20024;-69
2021/06/09 04:12:34;;;;;;;6.40;5.68;;;19.70;66.10;;;;;;6258134;23;20087;-70
2021/06/09 04:15:02;;;;;;;6.63;5.53;;;19.60;65.90;;;;;;6248112;23;20020;-70
2021/06/09 04:17:30;;;;;;;5.78;5.13;;;19.60;66.00;;;;;;6257931;23;20039;-69
2021/06/09 04:19:59;;;;;;;5.97;5.10;;;19.60;65.90;;;;;;6258454;23;20016;-70
2021/06/09 04:22:26;;;;;;;6.32;5.53;;;19.60;66.00;;;;;;6231598;23;20479;-70
2021/06/09 04:24:52;;;;;;;5.97;4.50;;;19.60;65.90;;;;;;6247478;23;20027;-69
2021/06/09 04:27:24;;;;;;;6.65;5.15;;;19.70;66.00;;;;;;6247484;23;20494;-69
2021/06/09 04:29:51;;;;;;;5.75;5.15;;;19.60;66.00;;;;;;6248666;23;20024;-71
2021/06/09 04:32:17;;;;;;;8.45;6.90;;;19.70;66.00;;;;;;6258087;23;20070;-70
2021/06/09 04:34:54;;;;;;;9.77;7.18;;;19.70;65.80;;;;;;6248038;23;20008;-72
2021/06/09 04:37:31;;;;;;;12.00;9.30;;;19.70;65.70;;;;;;6257946;23;20098;-69
2021/06/09 04:39:57;;;;;;;14.35;8.52;;;19.60;65.70;;;;;;6258935;23;20397;-68
2021/06/09 04:42:23;;;;;;;13.10;8.95;;;19.60;65.90;;;;;;6258224;23;20012;-68
2021/06/09 04:44:49;;;;;;;22.75;10.77;;;19.60;66.00;;;;;;6258207;23;20015;-68
2021/06/09 04:47:15;;;;;;;12.45;9.50;;;19.50;66.10;;;;;;6247840;23;20095;-68
2021/06/09 04:49:44;;;;;;;13.57;10.27;;;19.50;66.20;;;;;;6258198;23;20093;-68
2021/06/09 04:52:11;;;;;;;14.65;10.35;;;19.50;66.40;;;;;;6258318;23;20023;-68
2021/06/09 04:54:38;;;;;;;17.52;10.88;;;19.50;66.50;;;;;;6257824;23;20020;-69
2021/06/09 04:57:05;;;;;;;14.07;10.60;;;19.50;66.70;;;;;;6258583;23;20302;-69
2021/06/09 04:59:31;;;;;;;16.90;12.23;;;19.50;66.80;;;;;;6259927;23;20367;-68
2021/06/09 05:01:57;;;;;;;16.13;12.18;;;19.50;67.30;;;;;;6260009;23;20016;-67
2021/06/09 05:04:23;;;;;;;19.95;12.95;;;19.50;67.30;;;;;;6250644;23;20058;-67
2021/06/09 05:06:49;;;;;;;15.98;12.15;;;19.50;67.20;;;;;;6250078;23;20361;-70
